»·PEaware :: N9915H KSBD-KVNY

N9915H :: KSBD-KVNY

FLIGHT INFORMATION

Flight Status: Arrived
Operator: Privately registered:
United States
More flights under this callsign
Pilot: Charlton B. (28558)
Aircraft: CIRRUS VISIONJET
(SF50)
More flights by this aircraft type
Origin: KSBD San Bernardino Intl
United States
Destination: KVNY Van Nuys
United States
More flights between these airports :: More routes between these airports
Route: +RW6DP PDZ V197 POM V264 ITSME V186 VNY
File this flight plan on PilotEdge
Remarks:
Altitude:
(Current/Filed)
9,000ft
Speed:
(Current/Filed)
180kts
Departed: 08-Sep-20 01:23 PM
Arrived: 08-Sep-20 01:54 PM
Distance/Time
Traveled:
63nm/0:31
Distance/Time
To Go:
Arrived

Flight Plot

Page will automatically refresh every two minutes.

Flight plan parsing failed; only flown route is shown


Map Options




Map Legend


Flown Route
Filed Route
Departure Airport
Arrival Airport
Navaid (VOR, NDB)
Fix

Horizontal Profiles

Position Reports

Time Latitude Longitude Heading Altitude Ground
Speed
08-Sep-20 13:03 34.104464 -117.245820 286 1099ft 0kts
08-Sep-20 13:04 34.104464 -117.245820 286 1099ft 0kts
08-Sep-20 13:05 34.104464 -117.245820 286 1099ft 0kts
08-Sep-20 13:06 34.104464 -117.245820 286 1099ft 0kts
08-Sep-20 13:07 34.104464 -117.245820 286 1099ft 0kts
08-Sep-20 13:08 34.104160 -117.245377 115 1099ft 7kts
08-Sep-20 13:09 34.103808 -117.244263 111 1102ft 0kts
08-Sep-20 13:10 34.101053 -117.242118 171 1103ft 15kts
08-Sep-20 13:11 34.096672 -117.241947 184 1100ft 17kts
08-Sep-20 13:12 34.094212 -117.244893 251 1094ft 18kts
08-Sep-20 13:13 34.092541 -117.250433 246 1083ft 13kts
08-Sep-20 13:14 34.091593 -117.251212 130 1081ft 0kts
08-Sep-20 13:15 34.091593 -117.251212 130 1081ft 0kts
08-Sep-20 13:16 34.091593 -117.251212 130 1081ft 0kts
08-Sep-20 13:17 34.091593 -117.251212 130 1081ft 0kts
08-Sep-20 13:18 34.091593 -117.251212 130 1081ft 0kts
08-Sep-20 13:19 34.091593 -117.251212 130 1081ft 0kts
08-Sep-20 13:20 34.091593 -117.251212 130 1081ft 0kts
08-Sep-20 13:21 34.090978 -117.249435 72 1085ft 0kts
08-Sep-20 13:22 34.099831 -117.219395 79 1643ft 159kts
08-Sep-20 13:23 34.072742 -117.209910 241 4094ft 152kts
08-Sep-20 13:24 34.056683 -117.255246 273 6498ft 147kts
08-Sep-20 13:25 34.058616 -117.305835 276 8001ft 174kts
08-Sep-20 13:26 34.061377 -117.371218 275 7998ft 210kts
08-Sep-20 13:27 34.064463 -117.444446 276 8000ft 224kts
08-Sep-20 13:28 34.067676 -117.521214 276 7988ft 234kts
08-Sep-20 13:29 34.070948 -117.600790 276 7982ft 240kts
08-Sep-20 13:30 34.074203 -117.681251 275 7983ft 237kts
08-Sep-20 13:31 34.077366 -117.760565 275 7987ft 236kts
08-Sep-20 13:32 34.077607 -117.840012 271 7989ft 236kts
08-Sep-20 13:33 34.076411 -117.919220 271 7987ft 235kts
08-Sep-20 13:34 34.075147 -117.998682 274 7982ft 237kts
08-Sep-20 13:35 34.111174 -118.061792 311 7982ft 233kts
08-Sep-20 13:36 34.139020 -118.129210 287 7333ft 221kts
08-Sep-20 13:37 34.155181 -118.198413 288 5978ft 218kts
08-Sep-20 13:38 34.172659 -118.273122 287 5993ft 239kts
08-Sep-20 13:39 34.191003 -118.351743 284 5998ft 239kts
08-Sep-20 13:40 34.207025 -118.420723 284 5999ft 199kts
08-Sep-20 13:41 34.224861 -118.482960 319 6004ft 189kts
08-Sep-20 13:42 34.272608 -118.505297 347 6009ft 186kts
08-Sep-20 13:43 34.317396 -118.520590 352 6020ft 146kts
08-Sep-20 13:44 34.356960 -118.529284 344 6030ft 145kts
08-Sep-20 13:45 34.380117 -118.571278 309 6038ft 152kts
08-Sep-20 13:46 34.401910 -118.552765 118 5455ft 158kts
08-Sep-20 13:47 34.372266 -118.523011 200 5445ft 160kts
08-Sep-20 13:48 34.340067 -118.545199 132 5438ft 140kts
08-Sep-20 13:49 34.311351 -118.514110 148 5423ft 143kts
08-Sep-20 13:50 34.270352 -118.501595 167 3400ft 152kts
08-Sep-20 13:51 34.238389 -118.494579 167 1339ft 90kts
08-Sep-20 13:52 34.216600 -118.491016 175 833ft 66kts
08-Sep-20 13:53 34.208065 -118.491052 211 806ft 0kts
08-Sep-20 13:54 34.203730 -118.491265 191 806ft 14kts
08-Sep-20 13:55 34.203030 -118.491705 260 806ft 0kts

Navigation Log

Ident Type
Flight plan parsing failed, navigation log unavailable